TimeCST,TemperatureF,Dew PointF,Humidity,Sea Level PressureIn,VisibilityMPH,Wind Direction,Wind SpeedMPH,Gust SpeedMPH,PrecipitationIn,Events,Conditions,WindDirDegrees,DateUTC
12:52 AM,59.0,51.1,75,30.13,10.0,South,5.8,-,N/A,,Mostly Cloudy,180,2012-11-19 06:52:00
1:52 AM,57.9,51.1,78,30.12,10.0,South,6.9,-,N/A,,Overcast,190,2012-11-19 07:52:00
2:52 AM,59.0,52.0,78,30.12,10.0,Calm,Calm,-,N/A,,Overcast,0,2012-11-19 08:52:00
3:52 AM,59.0,52.0,78,30.11,10.0,South,9.2,-,N/A,,Mostly Cloudy,170,2012-11-19 09:52:00
4:02 AM,59.0,51.8,77,30.15,10.0,South,9.2,-,N/A,,Partly Cloudy,170,2012-11-19 10:02:00
4:52 AM,57.9,51.1,78,30.12,10.0,South,8.1,-,N/A,,Clear,170,2012-11-19 10:52:00
5:52 AM,55.9,51.1,84,30.12,10.0,South,8.1,-,N/A,,Clear,170,2012-11-19 11:52:00
6:52 AM,55.0,51.1,86,30.13,10.0,South,8.1,-,N/A,,Clear,180,2012-11-19 12:52:00
7:52 AM,55.0,52.0,89,30.15,10.0,South,4.6,-,N/A,,Clear,180,2012-11-19 13:52:00
8:52 AM,60.1,53.1,78,30.16,10.0,SSW,15.0,-,N/A,,Clear,210,2012-11-19 14:52:00
9:52 AM,63.0,54.0,72,30.16,10.0,SSW,12.7,-,N/A,,Clear,210,2012-11-19 15:52:00
10:52 AM,66.9,55.0,66,30.15,10.0,SSW,12.7,-,N/A,,Clear,210,2012-11-19 16:52:00
11:52 AM,70.0,55.0,59,30.12,10.0,SW,10.4,-,N/A,,Clear,220,2012-11-19 17:52:00
12:52 PM,73.0,54.0,51,30.09,10.0,SSW,12.7,-,N/A,,Clear,200,2012-11-19 18:52:00
1:52 PM,75.0,53.1,46,30.06,10.0,SW,9.2,-,N/A,,Clear,230,2012-11-19 19:52:00
2:52 PM,75.9,51.1,42,30.04,10.0,SW,6.9,-,N/A,,Clear,220,2012-11-19 20:52:00
3:52 PM,75.9,51.1,42,30.04,10.0,SSE,9.2,-,N/A,,Clear,160,2012-11-19 21:52:00
4:52 PM,75.0,50.0,41,30.04,10.0,South,11.5,-,N/A,,Clear,180,2012-11-19 22:52:00
5:52 PM,70.0,51.1,51,30.06,10.0,South,6.9,-,N/A,,Clear,180,2012-11-19 23:52:00
6:52 PM,66.0,52.0,60,30.09,10.0,South,5.8,-,N/A,,Clear,170,2012-11-20 00:52:00
7:52 PM,62.1,52.0,70,30.11,10.0,South,4.6,-,N/A,,Clear,180,2012-11-20 01:52:00
8:52 PM,61.0,51.1,70,30.10,10.0,South,6.9,-,N/A,,Clear,170,2012-11-20 02:52:00
9:52 PM,57.9,50.0,75,30.10,10.0,South,8.1,-,N/A,,Clear,170,2012-11-20 03:52:00
10:52 PM,59.0,51.1,75,30.09,10.0,SE,8.1,-,N/A,,Clear,140,2012-11-20 04:52:00
11:52 PM,55.9,52.0,87,30.09,10.0,South,9.2,-,N/A,,Clear,170,2012-11-20 05:52:00